TAF and METAR

METAR for Taraz Airport

UADD 061200Z 01003MPS 340V040 9999 SCT046 OVC100 37/03 Q1008 R13/0///65 RMK QFE699/0932
Report created 6. aug 14:00
wind 6 knots from N (010°) Wind direction varies from NNW to NE visibility > 10km scattered clouds (~50% cover) at 4600 feet overcast at 10000 feet Temperature 37° with dewpoint at 3° (Humidity 12.11%) Pressure 1008 hPa not measurable mm of clear and dry is covering not reported of runway 13 and friction coefficient is 0.65

TAF for Taraz Airport

TAF UADD 061100Z 0612/0621 04005G10MPS 9999 SCT050 BKN100
Report created 6. aug 13:00

between 6. aug 14:00 - 6. aug 23:00

wind 10 knots from NE (040°) with gusts up to 20 knots visibility > 10km scattered clouds (~50% cover) at 5000 feet broken clouds (~75% cover) at 10000 feet